Estación Meteorológica Peña el Pijo (Robertgarden) [ 07/20/18 16:44:58 CEST ]

Fecha Hora Presion(HPa) Temp (°C) Humedad % Rocio (°C) Viento ( m/s) Direccion Lluvia 1Hora(mm) Lluvia 24H(mm) LLuvia Total(mm)
2018-Mar-10 01:01:38 1001.300 11.6 69 6.1 2.3 WNW     129.50
2018-Mar-10 02:08:07 1001.300 11.3 68 5.6         129.50
2018-Mar-10 03:02:11 1001.100 10.7 69 5.3         129.50
2018-Mar-10 04:01:44 1000.300 11.3 67 5.4         129.50
2018-Mar-10 05:01:44 999.700 11.9 65 5.5 2.6 WNW     129.50
2018-Mar-10 06:01:46 999.700 11.1 63 4.3         129.50
2018-Mar-10 07:01:41 999.400 11.1 63 4.3         129.50
2018-Mar-10 08:01:54 999.500 11.5 61 4.2         129.50
2018-Mar-10 09:01:46 999.500 14.3 57 5.9         129.50
2018-Mar-10 10:01:38 999.600 15.9 48 4.9 1.9 NW     129.50
2018-Mar-10 11:01:51 999.400 17.8 46 5.9 4.3 NW     129.50
2018-Mar-10 12:01:46 998.900 19.9 41 6.2         129.50
2018-Mar-10 13:01:45 998.200 19.4 39 5.0 2.5 WNW     129.50
2018-Mar-10 14:02:10 997.600 19.4 40 5.5 6.0 WSW     129.50
2018-Mar-10 15:01:41 997.400 14.9 53 5.4         129.50
2018-Mar-10 16:01:47 997.600 12.2 66 6.1     0.51 0.51 130.01
2018-Mar-10 17:01:34 997.700 12.8 65 6.4       0.51 130.01
2018-Mar-10 18:01:42 997.600 10.6 69 5.2       0.51 130.01
2018-Mar-10 19:01:33 998.000 9.9 70 4.7       0.51 130.01
2018-Mar-10 20:01:50 998.000 8.9 73 4.3       1.03 130.53
2018-Mar-10 21:01:44 997.600 8.4 72 3.6       1.03 130.53
2018-Mar-10 22:01:26 998.100 7.9 71 3.0       1.03 130.53
2018-Mar-10 23:01:32 997.900 7.1 72 2.4       1.03 130.53

Temperatura Máxima:19°    Temperatura Mínima:
Presión Máxima:1001.300 Hpa    Presión Mínima:997.400 Hpa


Volver